Time;durP1;ratioP1;P1;durP2;ratioP2;P2;SDS_P1;SDS_P2;PMS_P1;PMS_P2;Temp;Humidity;BMP_temperature;BMP_pressure;BME280_temperature;BME280_humidity;BME280_pressure;Samples;Min_cycle;Max_cycle;Signal;HPM_P1;HPM_P2
2023/05/14 00:02:08;;;;;;;2.97;2.78;;;12.80;99.90;;;;;;5054420;28;20250;-76
2023/05/14 00:04:35;;;;;;;3.88;3.50;;;12.70;99.90;;;;;;5054931;28;20237;-76
2023/05/14 00:07:02;;;;;;;4.78;3.03;;;12.70;99.90;;;;;;5054070;28;20253;-75
2023/05/14 00:09:30;;;;;;;4.93;3.67;;;12.60;99.90;;;;;;5054075;28;20203;-76
2023/05/14 00:11:57;;;;;;;3.50;3.20;;;12.60;99.90;;;;;;5054169;28;20217;-77
2023/05/14 00:14:23;;;;;;;5.38;3.17;;;12.60;99.90;;;;;;5054373;28;20203;-75
2023/05/14 00:16:50;;;;;;;5.20;3.15;;;12.50;99.90;;;;;;5054047;28;20235;-76
2023/05/14 00:19:19;;;;;;;4.35;3.40;;;12.50;99.90;;;;;;5053996;28;20242;-75
2023/05/14 00:21:46;;;;;;;7.20;4.38;;;12.60;99.90;;;;;;5053689;28;20669;-75
2023/05/14 00:24:13;;;;;;;7.30;4.53;;;12.50;99.90;;;;;;5054050;28;20238;-75
2023/05/14 00:26:40;;;;;;;5.70;4.57;;;12.50;99.90;;;;;;5053686;28;20242;-75
2023/05/14 00:29:07;;;;;;;4.40;4.00;;;12.60;99.90;;;;;;5054056;28;20230;-74
2023/05/14 00:31:34;;;;;;;5.43;4.43;;;12.60;99.90;;;;;;5053976;28;20242;-75
2023/05/14 00:34:01;;;;;;;10.95;4.50;;;12.50;99.90;;;;;;5053516;28;20265;-74
2023/05/14 00:36:30;;;;;;;5.40;4.43;;;12.50;99.90;;;;;;5053793;28;20242;-73
2023/05/14 00:38:56;;;;;;;5.50;4.75;;;12.60;99.90;;;;;;5053426;28;20250;-74
2023/05/14 00:41:23;;;;;;;5.65;4.63;;;12.50;99.90;;;;;;5053664;28;20325;-74
2023/05/14 00:43:51;;;;;;;6.53;5.28;;;12.50;99.90;;;;;;5053473;28;20692;-74
2023/05/14 00:46:18;;;;;;;5.75;4.82;;;12.60;99.90;;;;;;5053609;28;20249;-74
2023/05/14 00:48:45;;;;;;;5.13;4.30;;;12.60;99.90;;;;;;5053159;28;20630;-74
2023/05/14 00:51:12;;;;;;;5.45;4.88;;;12.60;99.90;;;;;;5053729;28;20281;-74
2023/05/14 00:53:41;;;;;;;7.03;5.75;;;12.60;99.90;;;;;;5052933;28;20238;-71
2023/05/14 00:56:08;;;;;;;6.93;5.25;;;12.70;99.90;;;;;;5053351;28;20624;-74
2023/05/14 00:58:35;;;;;;;6.65;4.45;;;12.60;99.90;;;;;;5053729;28;20242;-74
2023/05/14 01:01:02;;;;;;;5.38;4.88;;;12.60;99.90;;;;;;5053032;28;20266;-74
2023/05/14 01:03:30;;;;;;;5.63;4.85;;;12.50;99.90;;;;;;5053352;28;20207;-75
2023/05/14 01:06:04;;;;;;;7.20;5.15;;;12.60;99.90;;;;;;5053134;28;20727;-74
2023/05/14 01:08:40;;;;;;;5.03;4.47;;;12.50;99.90;;;;;;5052383;28;20754;-73
2023/05/14 01:11:16;;;;;;;5.55;5.03;;;12.60;99.90;;;;;;5053202;28;20230;-73
2023/05/14 01:13:50;;;;;;;5.35;4.85;;;12.60;99.90;;;;;;5052703;28;20662;-74
2023/05/14 01:16:19;;;;;;;6.32;4.75;;;12.60;99.90;;;;;;5053072;28;20238;-73
2023/05/14 01:18:48;;;;;;;6.72;5.85;;;12.60;99.90;;;;;;5052571;28;20218;-73
2023/05/14 01:21:37;;;;;;;8.05;4.95;;;12.60;99.90;;;;;;5052859;28;20320;-74
2023/05/14 01:24:04;;;;;;;5.97;5.47;;;12.50;99.90;;;;;;5053235;28;20571;-72
2023/05/14 01:26:31;;;;;;;9.18;5.68;;;12.50;99.90;;;;;;5053247;28;20705;-78
2023/05/14 01:29:03;;;;;;;6.07;5.18;;;12.40;99.90;;;;;;5052668;28;20238;-77
2023/05/14 01:31:32;;;;;;;5.47;5.00;;;12.40;99.90;;;;;;5052884;28;20243;-78
2023/05/14 01:34:00;;;;;;;11.50;5.93;;;12.50;99.90;;;;;;5052600;28;20241;-74
2023/05/14 01:36:30;;;;;;;6.13;5.53;;;12.50;99.90;;;;;;5052663;28;20242;-77
2023/05/14 01:38:58;;;;;;;5.53;4.93;;;12.40;99.90;;;;;;5052891;28;20245;-76
2023/05/14 01:41:25;;;;;;;7.15;5.53;;;12.40;99.90;;;;;;5052868;28;20270;-76
2023/05/14 01:43:53;;;;;;;6.90;6.25;;;12.40;99.90;;;;;;5052070;28;20674;-76
2023/05/14 01:46:22;;;;;;;6.10;5.57;;;12.40;99.90;;;;;;5052675;28;20206;-77
2023/05/14 01:48:49;;;;;;;7.30;5.38;;;12.50;99.90;;;;;;5052188;28;20257;-77
2023/05/14 01:51:16;;;;;;;6.40;5.80;;;12.50;99.90;;;;;;5052185;28;20242;-76
2023/05/14 01:53:44;;;;;;;5.38;4.78;;;12.40;99.90;;;;;;5052359;28;20242;-77
2023/05/14 01:56:11;;;;;;;8.43;5.10;;;12.50;99.90;;;;;;5052238;28;20238;-75
2023/05/14 01:58:38;;;;;;;6.47;5.15;;;12.50;99.90;;;;;;5052093;28;20280;-72
2023/05/14 02:01:05;;;;;;;5.15;4.75;;;12.50;99.90;;;;;;5052573;28;20317;-75
2023/05/14 02:03:32;;;;;;;5.80;5.20;;;12.50;99.90;;;;;;5052499;28;20235;-75
2023/05/14 02:05:59;;;;;;;5.82;5.10;;;12.50;99.90;;;;;;5051493;28;20242;-75
2023/05/14 02:08:26;;;;;;;8.02;5.28;;;12.50;99.90;;;;;;5052135;28;20210;-74
2023/05/14 02:10:54;;;;;;;7.05;5.40;;;12.50;99.90;;;;;;5051641;28;20210;-75
2023/05/14 02:13:21;;;;;;;5.80;5.25;;;12.60;99.90;;;;;;5052110;28;20234;-77
2023/05/14 02:15:49;;;;;;;5.63;5.13;;;12.60;99.90;;;;;;5051604;28;20239;-76
2023/05/14 02:18:16;;;;;;;5.35;4.85;;;12.70;99.90;;;;;;5052110;28;20202;-76
2023/05/14 02:20:43;;;;;;;6.43;5.93;;;12.60;99.90;;;;;;5050455;28;20318;-73
2023/05/14 02:23:10;;;;;;;6.07;5.47;;;12.60;99.90;;;;;;5051810;28;20636;-77
2023/05/14 02:25:37;;;;;;;6.47;5.65;;;12.60;99.90;;;;;;5051907;28;20238;-74
2023/05/14 02:28:06;;;;;;;9.68;5.03;;;12.60;99.90;;;;;;5052123;28;20198;-74
2023/05/14 02:30:32;;;;;;;6.43;5.82;;;12.50;99.90;;;;;;5051916;28;20667;-76
2023/05/14 02:33:00;;;;;;;6.88;5.10;;;12.50;99.90;;;;;;5051271;28;20272;-75
2023/05/14 02:35:26;;;;;;;8.27;6.38;;;12.50;99.90;;;;;;5051622;28;20213;-75
2023/05/14 02:37:54;;;;;;;6.55;5.10;;;12.40;99.90;;;;;;5051399;28;20230;-75
2023/05/14 02:40:21;;;;;;;8.23;5.57;;;12.50;99.90;;;;;;5051547;28;20230;-76
2023/05/14 02:42:48;;;;;;;6.18;5.68;;;12.50;99.90;;;;;;5050988;28;20245;-75
2023/05/14 02:45:16;;;;;;;7.68;5.30;;;12.50;99.90;;;;;;5051486;28;20245;-73
2023/05/14 02:47:43;;;;;;;6.25;5.70;;;12.50;99.90;;;;;;5051011;28;20245;-75
2023/05/14 02:50:10;;;;;;;6.68;5.50;;;12.50;99.90;;;;;;5051321;28;20231;-72
2023/05/14 02:52:37;;;;;;;7.15;6.22;;;12.50;99.90;;;;;;5051388;28;20245;-74
2023/05/14 02:55:05;;;;;;;5.97;5.47;;;12.50;99.90;;;;;;5051672;28;20253;-72
2023/05/14 02:57:32;;;;;;;6.03;5.53;;;12.60;99.90;;;;;;5051591;28;20229;-75
2023/05/14 02:59:59;;;;;;;5.97;5.47;;;12.60;99.90;;;;;;5050723;28;20233;-73
2023/05/14 03:02:27;;;;;;;6.82;6.22;;;12.50;99.90;;;;;;5051081;28;20760;-74
2023/05/14 03:04:54;;;;;;;6.22;5.72;;;12.50;99.90;;;;;;5050669;28;20256;-74
2023/05/14 03:07:21;;;;;;;6.40;5.90;;;12.50;99.90;;;;;;5051067;28;20602;-73
2023/05/14 03:09:48;;;;;;;6.90;5.90;;;12.50;99.90;;;;;;5050726;28;20229;-75
2023/05/14 03:12:15;;;;;;;5.47;4.97;;;12.50;99.90;;;;;;5050958;28;20702;-72
2023/05/14 03:14:42;;;;;;;5.65;5.15;;;12.50;99.90;;;;;;5050597;28;20242;-75
2023/05/14 03:17:09;;;;;;;5.07;4.63;;;12.60;99.90;;;;;;5050652;28;20245;-73
2023/05/14 03:19:37;;;;;;;9.32;4.65;;;12.60;99.90;;;;;;5051109;28;20203;-72
2023/05/14 03:22:04;;;;;;;4.43;3.92;;;12.50;99.90;;;;;;5051258;28;20325;-74
2023/05/14 03:24:32;;;;;;;3.97;3.60;;;12.50;99.90;;;;;;5051094;28;20656;-75
2023/05/14 03:26:59;;;;;;;4.93;4.05;;;12.50;99.90;;;;;;5050483;28;20305;-75
2023/05/14 03:29:26;;;;;;;4.40;4.00;;;12.50;99.90;;;;;;5050827;28;20334;-75
2023/05/14 03:31:53;;;;;;;4.30;3.90;;;12.50;99.90;;;;;;5049810;28;20249;-76
2023/05/14 03:34:20;;;;;;;3.83;3.42;;;12.50;99.90;;;;;;5050981;28;20277;-76
2023/05/14 03:36:48;;;;;;;5.45;3.97;;;12.50;99.90;;;;;;5050303;28;20655;-75
2023/05/14 03:39:18;;;;;;;4.22;3.83;;;12.40;99.90;;;;;;5050712;28;20675;-73
2023/05/14 03:41:45;;;;;;;3.78;3.47;;;12.30;99.90;;;;;;5050143;28;20230;-75
2023/05/14 03:44:12;;;;;;;3.40;3.10;;;12.40;99.90;;;;;;5050495;28;20238;-74
2023/05/14 03:46:39;;;;;;;4.03;3.10;;;12.30;99.90;;;;;;5050067;28;20241;-74
2023/05/14 03:49:06;;;;;;;3.38;2.55;;;12.30;99.90;;;;;;5050669;28;20662;-71
2023/05/14 03:51:33;;;;;;;3.35;3.08;;;12.30;99.90;;;;;;5051012;28;20242;-74
2023/05/14 03:54:01;;;;;;;3.67;3.15;;;12.30;99.90;;;;;;5050024;28;20704;-71
2023/05/14 03:56:28;;;;;;;4.40;3.42;;;12.30;99.90;;;;;;5050215;28;20701;-74
2023/05/14 03:58:55;;;;;;;2.95;2.55;;;12.30;99.90;;;;;;5050364;28;20234;-74
2023/05/14 04:01:22;;;;;;;3.88;3.00;;;12.20;99.90;;;;;;5050106;28;20285;-75
2023/05/14 04:03:49;;;;;;;3.10;2.80;;;12.20;99.90;;;;;;5050168;28;20254;-76
2023/05/14 04:06:16;;;;;;;3.40;3.20;;;12.10;99.90;;;;;;5050431;28;20238;-75
2023/05/14 04:08:43;;;;;;;4.03;3.63;;;12.30;99.90;;;;;;5049959;28;20265;-75
2023/05/14 04:11:11;;;;;;;3.88;3.58;;;12.30;99.90;;;;;;5050542;28;20207;-75
2023/05/14 04:13:38;;;;;;;5.60;3.90;;;12.30;99.90;;;;;;5050022;28;20734;-72
2023/05/14 04:16:05;;;;;;;3.67;3.38;;;12.30;99.90;;;;;;5050558;28;20238;-75
2023/05/14 04:18:34;;;;;;;3.25;3.03;;;12.40;99.90;;;;;;5050616;28;20203;-74
2023/05/14 04:21:00;;;;;;;4.03;3.30;;;12.40;99.90;;;;;;5049834;28;20231;-75
2023/05/14 04:23:27;;;;;;;3.53;3.20;;;12.40;99.90;;;;;;5050317;28;20235;-74
2023/05/14 04:25:54;;;;;;;3.45;3.05;;;12.30;99.90;;;;;;5050123;28;20235;-75
2023/05/14 04:28:23;;;;;;;4.05;3.72;;;12.30;99.90;;;;;;5050230;28;20709;-76
2023/05/14 04:30:49;;;;;;;4.50;4.10;;;12.40;99.90;;;;;;5049648;28;20238;-74
2023/05/14 04:33:16;;;;;;;4.15;3.78;;;12.50;99.90;;;;;;5050350;28;20230;-74
2023/05/14 04:35:44;;;;;;;3.30;3.00;;;12.50;99.90;;;;;;5049702;28;20209;-73
2023/05/14 04:38:12;;;;;;;3.28;2.97;;;12.50;99.90;;;;;;5050493;28;20231;-73
2023/05/14 04:40:40;;;;;;;4.28;3.05;;;12.40;99.90;;;;;;5049919;28;20249;-76
2023/05/14 04:43:07;;;;;;;3.10;2.90;;;12.40;99.90;;;;;;5051086;28;20257;-73
2023/05/14 04:45:35;;;;;;;3.03;2.80;;;12.50;99.90;;;;;;5051291;28;20677;-72
2023/05/14 04:48:02;;;;;;;3.30;3.00;;;12.30;99.90;;;;;;5056981;28;20234;-75
2023/05/14 04:50:29;;;;;;;3.75;3.45;;;12.40;99.90;;;;;;5050304;28;20281;-72
2023/05/14 04:52:56;;;;;;;3.22;3.03;;;12.40;99.90;;;;;;5033115;28;20258;-73
2023/05/14 04:55:23;;;;;;;3.22;3.03;;;12.40;99.90;;;;;;5033673;28;20254;-72
2023/05/14 04:57:50;;;;;;;2.80;2.60;;;12.40;99.90;;;;;;5032923;28;20239;-73
2023/05/14 05:00:18;;;;;;;3.22;3.03;;;12.40;99.90;;;;;;5033095;28;20243;-74
2023/05/14 05:02:46;;;;;;;4.10;3.78;;;12.40;99.90;;;;;;5035913;28;20334;-74
2023/05/14 05:05:14;;;;;;;3.53;3.00;;;12.50;99.90;;;;;;5052941;28;20256;-72
2023/05/14 05:07:41;;;;;;;4.20;3.70;;;12.50;99.90;;;;;;5052973;28;20237;-74
2023/05/14 05:10:09;;;;;;;3.17;2.95;;;12.50;99.90;;;;;;5053054;28;20633;-73
2023/05/14 05:12:36;;;;;;;2.88;2.67;;;12.50;99.90;;;;;;5053416;28;20637;-72
2023/05/14 05:15:03;;;;;;;2.63;2.42;;;12.60;99.90;;;;;;5052960;28;20619;-72
2023/05/14 05:17:30;;;;;;;4.30;2.95;;;12.60;99.90;;;;;;5052983;28;20209;-74
2023/05/14 05:19:58;;;;;;;2.55;2.35;;;12.60;99.90;;;;;;5052552;28;20199;-74
2023/05/14 05:22:25;;;;;;;2.97;2.78;;;12.60;99.90;;;;;;5053053;28;20273;-73
2023/05/14 05:24:52;;;;;;;3.30;3.00;;;12.60;99.90;;;;;;5052433;28;20246;-74
2023/05/14 05:27:20;;;;;;;3.03;2.80;;;12.50;99.90;;;;;;5052890;28;20234;-74
2023/05/14 05:29:47;;;;;;;2.90;2.70;;;12.50;99.90;;;;;;5051966;28;20207;-74
2023/05/14 05:32:14;;;;;;;2.80;2.60;;;12.60;99.90;;;;;;5053058;28;20226;-73
2023/05/14 05:34:41;;;;;;;2.83;2.63;;;12.50;99.90;;;;;;5052400;28;20243;-74
2023/05/14 05:37:11;;;;;;;3.03;2.83;;;12.60;99.90;;;;;;5052840;28;20230;-74
2023/05/14 05:39:38;;;;;;;2.95;2.58;;;12.80;99.90;;;;;;5045468;28;20261;-71
2023/05/14 05:42:06;;;;;;;3.10;2.90;;;13.10;99.90;;;;;;5042165;28;20266;-73
2023/05/14 05:44:33;;;;;;;3.03;2.83;;;12.90;99.90;;;;;;5052620;28;20246;-72
2023/05/14 05:47:00;;;;;;;2.78;2.45;;;12.80;99.90;;;;;;5052143;28;20697;-71
2023/05/14 05:49:27;;;;;;;2.80;2.60;;;12.70;99.90;;;;;;5052684;28;20271;-73
2023/05/14 05:51:54;;;;;;;3.30;3.00;;;12.80;99.90;;;;;;5052016;28;20249;-71
2023/05/14 05:54:23;;;;;;;3.13;2.88;;;12.70;99.90;;;;;;5052370;28;20253;-72
2023/05/14 05:56:50;;;;;;;3.33;2.47;;;12.70;99.90;;;;;;5051719;28;20207;-72
2023/05/14 05:59:17;;;;;;;3.22;2.50;;;12.70;99.90;;;;;;5052262;28;20232;-72
2023/05/14 06:01:44;;;;;;;3.25;3.05;;;12.80;99.90;;;;;;5051630;28;20649;-74
2023/05/14 06:04:11;;;;;;;3.30;3.05;;;12.80;99.90;;;;;;5050420;28;20298;-71
2023/05/14 06:06:38;;;;;;;3.05;2.85;;;12.80;99.90;;;;;;5051048;28;20238;-71
2023/05/14 06:09:05;;;;;;;3.08;2.83;;;12.80;99.90;;;;;;5049088;28;20246;-71
2023/05/14 06:11:34;;;;;;;3.88;3.42;;;12.80;99.90;;;;;;5051845;28;20214;-74
2023/05/14 06:14:01;;;;;;;3.75;3.45;;;12.90;99.90;;;;;;5051146;28;20214;-72
2023/05/14 06:16:28;;;;;;;4.32;4.03;;;12.80;99.90;;;;;;5052042;28;20647;-73
2023/05/14 06:18:55;;;;;;;3.88;3.58;;;13.00;99.90;;;;;;5051529;28;20246;-72
2023/05/14 06:21:22;;;;;;;4.18;3.65;;;13.00;99.90;;;;;;5050250;28;20684;-72
2023/05/14 06:23:49;;;;;;;4.35;4.00;;;13.10;99.90;;;;;;5032994;28;20235;-72
2023/05/14 06:26:16;;;;;;;4.90;3.60;;;13.10;99.90;;;;;;5031973;28;20669;-72
2023/05/14 06:28:44;;;;;;;4.32;3.92;;;13.10;99.90;;;;;;5031560;28;20239;-73
2023/05/14 06:31:11;;;;;;;6.43;4.97;;;13.20;99.90;;;;;;5031551;28;20290;-71
2023/05/14 06:33:38;;;;;;;4.85;3.67;;;13.10;99.90;;;;;;5031502;28;20243;-71
2023/05/14 06:36:07;;;;;;;4.47;4.07;;;13.10;99.90;;;;;;5050175;28;20257;-73
2023/05/14 06:38:34;;;;;;;4.57;3.72;;;13.10;99.90;;;;;;5051896;28;20205;-73
2023/05/14 06:41:01;;;;;;;4.47;4.07;;;13.20;99.90;;;;;;5050733;28;20215;-73
2023/05/14 06:43:28;;;;;;;4.38;3.97;;;13.30;99.90;;;;;;5047545;28;20259;-73
2023/05/14 06:45:56;;;;;;;4.40;3.50;;;13.30;99.90;;;;;;5060388;28;20242;-73
2023/05/14 06:48:26;;;;;;;4.00;3.67;;;13.30;99.90;;;;;;5057943;28;20242;-73
2023/05/14 06:50:53;;;;;;;8.30;4.30;;;13.40;99.90;;;;;;5060285;28;20210;-73
2023/05/14 06:53:20;;;;;;;5.50;4.97;;;13.50;99.90;;;;;;5070882;28;20249;-74
2023/05/14 06:55:47;;;;;;;4.90;4.40;;;13.50;99.90;;;;;;5060586;28;20246;-74
2023/05/14 06:58:14;;;;;;;4.97;4.47;;;13.50;99.90;;;;;;5051362;28;20199;-73
2023/05/14 07:00:41;;;;;;;6.82;4.88;;;13.60;99.90;;;;;;5050485;28;20245;-73
2023/05/14 07:03:09;;;;;;;4.80;4.40;;;13.60;99.90;;;;;;5050655;28;20277;-73
2023/05/14 07:05:36;;;;;;;6.05;4.70;;;13.60;99.90;;;;;;5050306;28;20262;-75
2023/05/14 07:08:03;;;;;;;5.88;4.53;;;13.60;99.90;;;;;;5051326;28;20645;-74
2023/05/14 07:10:31;;;;;;;4.25;3.83;;;13.60;99.90;;;;;;5051093;28;20234;-74
2023/05/14 07:12:58;;;;;;;5.18;4.70;;;13.70;99.90;;;;;;5050598;28;20202;-74
2023/05/14 07:15:25;;;;;;;4.95;4.32;;;13.80;99.90;;;;;;5051087;28;20635;-74
2023/05/14 07:17:52;;;;;;;5.47;4.97;;;13.80;99.90;;;;;;5050569;28;20234;-74
2023/05/14 07:20:22;;;;;;;5.05;4.55;;;13.80;99.90;;;;;;5047811;28;20239;-78
2023/05/14 07:22:49;;;;;;;4.47;3.97;;;13.90;99.90;;;;;;5047626;28;20249;-75
2023/05/14 07:25:16;;;;;;;6.13;4.75;;;14.00;99.90;;;;;;5050228;28;20206;-74
2023/05/14 07:27:43;;;;;;;4.53;4.13;;;14.20;99.90;;;;;;5031317;28;20208;-75
2023/05/14 07:30:10;;;;;;;5.05;4.65;;;14.30;99.90;;;;;;5050632;28;20625;-74
2023/05/14 07:32:37;;;;;;;5.05;4.03;;;14.30;99.90;;;;;;5050941;28;20238;-74
2023/05/14 07:35:05;;;;;;;4.25;3.88;;;14.50;99.90;;;;;;5050175;28;20328;-75
2023/05/14 07:37:34;;;;;;;4.80;4.40;;;14.80;99.90;;;;;;5050568;28;20210;-75
2023/05/14 07:40:01;;;;;;;4.57;4.18;;;14.80;99.90;;;;;;5049876;28;20214;-78
2023/05/14 07:42:27;;;;;;;4.95;4.55;;;14.70;99.90;;;;;;5050611;28;20289;-76
2023/05/14 07:44:54;;;;;;;5.88;5.15;;;14.70;99.90;;;;;;5050272;28;20242;-76
2023/05/14 07:47:21;;;;;;;5.15;4.68;;;14.70;99.90;;;;;;5050613;28;20656;-75
2023/05/14 07:49:48;;;;;;;4.72;4.10;;;14.70;99.90;;;;;;5050512;28;20237;-76
2023/05/14 07:52:15;;;;;;;4.07;3.78;;;14.60;99.90;;;;;;5048668;28;20690;-74
2023/05/14 07:54:43;;;;;;;4.85;4.43;;;14.60;99.90;;;;;;5044876;28;20300;-71
2023/05/14 07:57:10;;;;;;;6.10;4.68;;;14.60;99.90;;;;;;5050198;28;20653;-73
2023/05/14 07:59:37;;;;;;;5.43;4.88;;;14.50;99.90;;;;;;5050208;28;20238;-74
2023/05/14 08:02:04;;;;;;;5.38;4.25;;;14.60;99.90;;;;;;5050278;28;20270;-73
2023/05/14 08:04:31;;;;;;;4.78;4.40;;;14.60;99.90;;;;;;5050832;28;20205;-75
2023/05/14 08:06:58;;;;;;;5.05;4.25;;;14.60;99.90;;;;;;5050241;28;20262;-75
2023/05/14 08:09:25;;;;;;;4.65;3.95;;;14.60;99.90;;;;;;5050116;28;20741;-75
2023/05/14 08:11:53;;;;;;;4.70;4.35;;;14.80;99.90;;;;;;5036338;28;20291;-75
2023/05/14 08:14:20;;;;;;;4.88;4.38;;;15.10;99.90;;;;;;5030256;28;20647;-76
2023/05/14 08:16:47;;;;;;;4.50;4.13;;;15.10;99.90;;;;;;5039173;28;20238;-77
2023/05/14 08:19:16;;;;;;;4.55;4.00;;;15.00;99.90;;;;;;5053042;28;20698;-75
2023/05/14 08:21:43;;;;;;;4.90;4.50;;;14.90;99.90;;;;;;5049052;28;20243;-74
2023/05/14 08:24:10;;;;;;;4.43;3.92;;;14.80;99.90;;;;;;5033961;28;20271;-75
2023/05/14 08:26:37;;;;;;;5.22;4.57;;;14.80;99.90;;;;;;5034072;28;20231;-76
2023/05/14 08:29:06;;;;;;;4.78;4.30;;;14.90;99.90;;;;;;5050737;28;20690;-77
2023/05/14 08:31:32;;;;;;;4.70;4.28;;;15.00;99.90;;;;;;5053616;28;20203;-74
2023/05/14 08:33:59;;;;;;;6.95;4.35;;;15.00;99.90;;;;;;5053695;28;20242;-75
2023/05/14 08:36:26;;;;;;;5.20;4.70;;;14.90;99.90;;;;;;5052480;28;20523;-76
2023/05/14 08:38:53;;;;;;;5.32;4.82;;;14.80;99.90;;;;;;5052245;28;20202;-75
2023/05/14 08:41:21;;;;;;;5.43;4.93;;;14.90;99.90;;;;;;5053415;28;20234;-75
2023/05/14 08:44:02;;;;;;;4.90;4.47;;;14.90;99.90;;;;;;5053227;28;20235;-75
2023/05/14 08:46:31;;;;;;;6.50;5.90;;;14.80;99.90;;;;;;5053628;28;20705;-74
2023/05/14 08:49:05;;;;;;;7.00;4.95;;;14.80;99.90;;;;;;5052477;28;20246;-75
2023/05/14 08:51:32;;;;;;;5.18;4.75;;;14.70;99.90;;;;;;5053382;28;20260;-75
2023/05/14 08:54:02;;;;;;;5.60;4.93;;;14.80;99.90;;;;;;5052830;28;20242;-75
2023/05/14 08:56:32;;;;;;;5.90;5.30;;;14.90;99.90;;;;;;5053549;28;20218;-75
2023/05/14 08:58:59;;;;;;;5.38;4.90;;;15.00;99.90;;;;;;5053134;28;20238;-75
2023/05/14 09:01:26;;;;;;;5.70;5.15;;;15.20;99.90;;;;;;5053451;28;20276;-74
2023/05/14 09:03:54;;;;;;;5.30;4.80;;;15.40;99.90;;;;;;5049843;28;20328;-74
2023/05/14 09:06:22;;;;;;;6.03;5.28;;;15.40;99.90;;;;;;5051806;28;20265;-74
2023/05/14 09:08:49;;;;;;;5.28;4.65;;;15.40;99.90;;;;;;5053031;28;20737;-74
2023/05/14 09:11:16;;;;;;;5.28;4.78;;;15.70;99.90;;;;;;5053170;28;20641;-75
2023/05/14 09:13:43;;;;;;;4.70;4.25;;;16.20;99.90;;;;;;5053057;28;20238;-75
2023/05/14 09:16:10;;;;;;;5.20;4.70;;;16.80;99.90;;;;;;5053110;28;20215;-75
2023/05/14 09:18:37;;;;;;;4.97;4.38;;;16.70;99.90;;;;;;5053245;28;20235;-72
2023/05/14 09:21:06;;;;;;;5.45;5.05;;;16.50;99.90;;;;;;5053180;28;20364;-74
2023/05/14 09:23:33;;;;;;;7.82;5.28;;;16.20;99.90;;;;;;5053407;28;20266;-75
2023/05/14 09:26:04;;;;;;;5.72;5.22;;;16.20;99.90;;;;;;5052742;28;20203;-75
2023/05/14 09:28:31;;;;;;;6.55;5.90;;;16.20;99.90;;;;;;5052990;28;20203;-75
2023/05/14 09:30:58;;;;;;;5.45;4.43;;;16.10;99.90;;;;;;5052529;28;20260;-75
2023/05/14 09:33:29;;;;;;;5.18;4.78;;;16.80;99.90;;;;;;5052865;28;20242;-75
2023/05/14 09:35:59;;;;;;;5.28;4.78;;;17.50;99.90;;;;;;5052110;28;20678;-75
2023/05/14 09:38:30;;;;;;;5.25;4.75;;;17.80;99.90;;;;;;5053013;28;20203;-75
2023/05/14 09:40:57;;;;;;;4.13;3.72;;;17.10;99.90;;;;;;5052132;28;20225;-73
2023/05/14 09:43:24;;;;;;;5.70;4.47;;;17.20;99.90;;;;;;5052567;28;20274;-74
2023/05/14 09:45:52;;;;;;;5.10;4.63;;;17.90;99.90;;;;;;5052111;28;20238;-75
2023/05/14 09:48:19;;;;;;;5.85;5.35;;;19.00;99.90;;;;;;5052585;28;20238;-75
2023/05/14 09:50:46;;;;;;;4.28;3.97;;;19.00;99.90;;;;;;5051981;28;20624;-75
2023/05/14 09:53:14;;;;;;;4.10;3.75;;;20.40;99.90;;;;;;5052585;28;20238;-74
2023/05/14 09:55:42;;;;;;;4.82;4.13;;;19.80;99.90;;;;;;5052258;28;20305;-73
2023/05/14 09:58:09;;;;;;;4.43;4.03;;;18.40;99.90;;;;;;5052456;28;20203;-74
2023/05/14 10:00:37;;;;;;;4.47;4.18;;;18.00;99.90;;;;;;5052429;28;20242;-73
2023/05/14 10:03:06;;;;;;;4.85;4.45;;;17.90;99.90;;;;;;5052323;28;20270;-75
2023/05/14 10:05:36;;;;;;;4.57;4.18;;;17.70;99.90;;;;;;5052513;28;20210;-74
2023/05/14 10:08:08;;;;;;;4.75;3.53;;;17.30;99.90;;;;;;5052538;28;20289;-74
2023/05/14 10:10:37;;;;;;;4.90;4.50;;;17.50;99.90;;;;;;5052457;28;20242;-73
2023/05/14 10:13:11;;;;;;;4.53;4.13;;;17.90;99.90;;;;;;5052404;28;20215;-75
2023/05/14 10:15:48;;;;;;;4.20;3.88;;;18.20;99.90;;;;;;5051740;28;20229;-73
2023/05/14 10:18:18;;;;;;;4.22;3.92;;;18.00;99.90;;;;;;5051741;28;20207;-73
2023/05/14 10:20:51;;;;;;;4.63;3.63;;;18.20;99.90;;;;;;5051578;28;20272;-74
2023/05/14 10:23:19;;;;;;;3.80;3.50;;;18.50;99.90;;;;;;5046892;28;20227;-79
2023/05/14 10:25:46;;;;;;;4.13;3.83;;;18.40;99.90;;;;;;5050119;28;20207;-75
2023/05/14 10:28:14;;;;;;;4.05;3.20;;;18.20;99.90;;;;;;5049577;28;20245;-75
2023/05/14 10:30:45;;;;;;;4.43;4.03;;;17.80;99.90;;;;;;5041995;28;20210;-75
2023/05/14 10:33:14;;;;;;;5.28;4.07;;;17.60;99.90;;;;;;5031458;28;20218;-73
2023/05/14 10:35:57;;;;;;;3.83;3.53;;;17.50;99.90;;;;;;5031182;28;20203;-74
2023/05/14 10:38:27;;;;;;;4.35;3.83;;;17.30;99.90;;;;;;5036913;28;20257;-74
2023/05/14 10:41:04;;;;;;;4.72;3.15;;;17.40;99.90;;;;;;5048227;28;20299;-76
2023/05/14 10:43:37;;;;;;;3.50;3.20;;;17.40;99.90;;;;;;5049714;28;20234;-77
2023/05/14 10:46:04;;;;;;;3.58;3.28;;;17.50;99.90;;;;;;5051106;28;20206;-76
2023/05/14 10:48:32;;;;;;;3.33;3.03;;;18.50;99.90;;;;;;5050591;28;20214;-80
2023/05/14 10:51:00;;;;;;;5.68;3.72;;;18.90;99.90;;;;;;5050585;28;20207;-78
2023/05/14 10:53:33;;;;;;;5.18;2.65;;;18.80;99.90;;;;;;5051094;28;20250;-77
2023/05/14 10:56:04;;;;;;;3.70;3.40;;;18.50;99.90;;;;;;5050863;28;20629;-75
2023/05/14 10:58:35;;;;;;;4.00;3.63;;;18.40;99.90;;;;;;5049799;28;20217;-74
2023/05/14 11:01:04;;;;;;;4.50;3.20;;;18.00;99.90;;;;;;5049708;28;20292;-74
2023/05/14 11:03:32;;;;;;;4.50;3.20;;;17.90;99.90;;;;;;5051461;28;20234;-75
2023/05/14 11:06:03;;;;;;;3.47;3.28;;;18.10;99.90;;;;;;5050723;28;20305;-76
2023/05/14 11:08:32;;;;;;;3.40;3.13;;;18.00;99.90;;;;;;5051191;28;20285;-76
2023/05/14 11:11:00;;;;;;;4.63;3.47;;;18.20;99.90;;;;;;5050854;28;20282;-76
2023/05/14 11:13:27;;;;;;;3.63;3.28;;;18.70;99.90;;;;;;5050387;28;20257;-77
2023/05/14 11:15:57;;;;;;;3.20;3.00;;;19.00;99.90;;;;;;5049298;28;20760;-73
2023/05/14 11:18:27;;;;;;;3.78;3.50;;;18.70;99.90;;;;;;5050029;28;20625;-73
2023/05/14 11:20:54;;;;;;;3.05;2.85;;;18.70;99.90;;;;;;5050630;28;20213;-73
2023/05/14 11:23:23;;;;;;;3.45;3.15;;;18.70;99.90;;;;;;5050057;28;20321;-73
2023/05/14 11:25:51;;;;;;;5.75;3.33;;;18.80;99.90;;;;;;5050554;28;20215;-73
2023/05/14 11:28:19;;;;;;;2.97;2.78;;;18.50;99.90;;;;;;5045719;28;20706;-74
2023/05/14 11:30:46;;;;;;;3.47;3.20;;;18.30;99.90;;;;;;5050476;28;20269;-74
2023/05/14 11:33:15;;;;;;;3.83;3.53;;;18.60;99.90;;;;;;5049816;28;20250;-75
2023/05/14 11:35:44;;;;;;;4.75;3.92;;;19.10;99.90;;;;;;5049688;28;20238;-72
2023/05/14 11:38:15;;;;;;;3.53;3.22;;;19.20;99.90;;;;;;5050712;28;20215;-73
2023/05/14 11:40:42;;;;;;;3.53;2.55;;;19.60;99.90;;;;;;5050173;28;20207;-74
2023/05/14 11:43:09;;;;;;;2.90;2.50;;;19.50;99.90;;;;;;5050577;28;20245;-74
2023/05/14 11:45:36;;;;;;;2.90;2.70;;;19.20;99.90;;;;;;5050996;28;20249;-74
2023/05/14 11:48:13;;;;;;;3.13;2.90;;;19.00;99.90;;;;;;5051252;28;20203;-73
2023/05/14 11:50:45;;;;;;;2.47;2.28;;;18.70;99.90;;;;;;5050183;28;20213;-73
2023/05/14 11:53:15;;;;;;;4.50;2.85;;;19.20;99.90;;;;;;5053635;28;20260;-75
2023/05/14 11:55:42;;;;;;;2.95;2.75;;;19.20;99.90;;;;;;5054426;28;20249;-74
2023/05/14 11:58:09;;;;;;;2.53;2.42;;;18.70;99.90;;;;;;5054853;28;20647;-77
2023/05/14 12:00:38;;;;;;;2.95;2.65;;;18.70;99.90;;;;;;5054573;28;20245;-75
2023/05/14 12:03:05;;;;;;;2.88;2.65;;;19.00;99.90;;;;;;5054820;28;20206;-76
2023/05/14 12:05:32;;;;;;;3.05;2.85;;;19.20;99.90;;;;;;5054824;28;20245;-73
2023/05/14 12:08:00;;;;;;;3.55;2.90;;;19.20;99.90;;;;;;5054114;28;20678;-74
2023/05/14 12:10:27;;;;;;;2.78;2.42;;;19.10;99.90;;;;;;5054706;28;20674;-76
2023/05/14 12:12:54;;;;;;;3.40;2.33;;;19.00;99.90;;;;;;5054175;28;20241;-77
2023/05/14 12:15:22;;;;;;;3.97;2.80;;;19.30;99.90;;;;;;5054291;28;20246;-78
2023/05/14 12:17:52;;;;;;;2.75;2.55;;;18.70;99.90;;;;;;5053769;28;20214;-76
2023/05/14 12:20:19;;;;;;;4.85;3.78;;;18.40;99.90;;;;;;5054328;28;20238;-77
2023/05/14 12:22:46;;;;;;;5.00;3.13;;;18.10;99.90;;;;;;5054081;28;20235;-76
2023/05/14 12:25:14;;;;;;;3.90;3.60;;;18.00;99.90;;;;;;5054061;28;20737;-76
2023/05/14 12:27:44;;;;;;;3.88;3.47;;;18.00;99.90;;;;;;5054133;28;20238;-75
2023/05/14 12:30:13;;;;;;;3.17;2.95;;;18.00;99.90;;;;;;5053921;28;20209;-77
2023/05/14 12:32:40;;;;;;;3.05;2.85;;;17.90;99.90;;;;;;5053198;28;20296;-76
2023/05/14 12:35:07;;;;;;;2.70;2.50;;;17.80;99.90;;;;;;5053549;28;20598;-75
2023/05/14 12:37:36;;;;;;;2.88;2.67;;;18.00;99.90;;;;;;5052246;28;20207;-77
2023/05/14 12:40:07;;;;;;;2.67;2.47;;;18.00;99.90;;;;;;5053518;28;20207;-78
2023/05/14 12:42:36;;;;;;;3.30;3.00;;;18.20;99.90;;;;;;5053969;28;20207;-78
2023/05/14 12:45:05;;;;;;;2.83;2.55;;;18.60;99.90;;;;;;5054293;28;20238;-74
2023/05/14 12:47:32;;;;;;;2.75;2.55;;;19.20;99.90;;;;;;5054147;28;20198;-76
2023/05/14 12:49:59;;;;;;;2.03;1.92;;;19.50;99.90;;;;;;5053666;28;20234;-77
2023/05/14 12:52:26;;;;;;;3.17;2.55;;;19.80;99.90;;;;;;5052201;28;20686;-76